Time;durP1;ratioP1;P1;durP2;ratioP2;P2;SDS_P1;SDS_P2;PMS_P1;PMS_P2;Temp;Humidity;BMP_temperature;BMP_pressure;BME280_temperature;BME280_humidity;BME280_pressure;Samples;Min_cycle;Max_cycle;Signal;HPM_P1;HPM_P2
2021/05/17 00:01:37;;;;;;;0.90;0.70;;;11.10;81.60;;;;;;5099152;28;20509;-86
2021/05/17 00:04:14;;;;;;;0.93;0.80;;;11.10;81.30;;;;;;5113681;28;20449;-78
2021/05/17 00:06:49;;;;;;;1.73;0.83;;;11.10;81.40;;;;;;5113642;28;20461;-78
2021/05/17 00:09:24;;;;;;;1.10;0.97;;;11.20;81.60;;;;;;5114677;28;20452;-80
2021/05/17 00:11:59;;;;;;;0.60;0.60;;;11.20;81.10;;;;;;5118237;28;20516;-79
2021/05/17 00:14:35;;;;;;;0.90;0.80;;;11.20;81.50;;;;;;5115166;28;20454;-79
2021/05/17 00:17:11;;;;;;;0.90;0.90;;;11.20;81.20;;;;;;5104629;28;20439;-81
2021/05/17 00:19:46;;;;;;;0.77;0.73;;;11.20;81.00;;;;;;5105942;28;20450;-82
2021/05/17 00:22:21;;;;;;;1.30;0.70;;;11.20;81.20;;;;;;5092580;28;20437;-79
2021/05/17 00:24:55;;;;;;;0.70;0.70;;;11.20;81.30;;;;;;5095782;28;20472;-79
2021/05/17 00:27:30;;;;;;;0.90;0.87;;;11.20;81.30;;;;;;5084647;28;20538;-78
2021/05/17 00:30:05;;;;;;;0.80;0.80;;;11.20;80.90;;;;;;5096077;28;21251;-80
2021/05/17 00:32:42;;;;;;;1.23;0.73;;;11.20;80.60;;;;;;5097661;28;20459;-81
2021/05/17 00:35:18;;;;;;;0.77;0.60;;;11.30;81.10;;;;;;5095493;28;20487;-79
2021/05/17 00:37:53;;;;;;;0.60;0.50;;;11.30;80.80;;;;;;5098349;28;20485;-78
2021/05/17 00:40:30;;;;;;;0.90;0.50;;;11.30;80.40;;;;;;5101091;28;20466;-79
2021/05/17 00:43:08;;;;;;;1.50;0.60;;;11.20;80.50;;;;;;5102294;28;20442;-80
2021/05/17 00:45:40;;;;;;;0.90;0.60;;;11.20;80.70;;;;;;5091177;28;20968;-82
2021/05/17 00:48:17;;;;;;;0.50;0.40;;;11.20;80.80;;;;;;5097861;28;20447;-79
2021/05/17 00:50:53;;;;;;;0.60;0.50;;;11.20;80.90;;;;;;5097278;28;20452;-80
2021/05/17 00:53:37;;;;;;;0.80;0.70;;;11.20;81.10;;;;;;5089319;28;20451;-80
2021/05/17 00:56:12;;;;;;;0.57;0.40;;;11.20;81.20;;;;;;5098433;28;20579;-79
2021/05/17 00:58:48;;;;;;;0.80;0.60;;;11.20;81.40;;;;;;5099270;28;20450;-80
2021/05/17 01:01:23;;;;;;;0.77;0.60;;;11.20;81.40;;;;;;5096199;28;20487;-79
2021/05/17 01:03:59;;;;;;;1.03;0.70;;;11.30;81.30;;;;;;5089809;28;20456;-80
2021/05/17 01:06:36;;;;;;;1.00;0.70;;;11.20;81.30;;;;;;5087033;28;20886;-78
2021/05/17 01:09:13;;;;;;;0.60;0.60;;;11.20;81.40;;;;;;5091082;28;20442;-80
2021/05/17 01:11:49;;;;;;;1.17;0.90;;;11.20;81.50;;;;;;5092016;28;20493;-80
2021/05/17 01:14:24;;;;;;;2.23;0.80;;;11.20;81.20;;;;;;5097425;28;20461;-80
2021/05/17 01:17:06;;;;;;;0.67;0.53;;;11.20;81.50;;;;;;5093274;28;20472;-79
2021/05/17 01:19:52;;;;;;;1.10;0.57;;;11.20;81.20;;;;;;5092356;28;20443;-80
2021/05/17 01:22:36;;;;;;;1.03;0.53;;;11.10;80.70;;;;;;5102050;28;20459;-82
2021/05/17 01:25:14;;;;;;;0.67;0.67;;;11.10;80.60;;;;;;5081963;28;20485;-81
2021/05/17 01:27:50;;;;;;;1.10;0.80;;;11.10;80.90;;;;;;5104592;28;20447;-83
2021/05/17 01:30:26;;;;;;;1.90;0.70;;;11.20;81.00;;;;;;5103996;28;20455;-83
2021/05/17 01:33:02;;;;;;;0.60;0.60;;;11.10;81.20;;;;;;5092938;28;20476;-80
2021/05/17 01:35:34;;;;;;;1.00;0.53;;;11.10;81.50;;;;;;5092911;28;20482;-81
2021/05/17 01:38:10;;;;;;;1.20;0.80;;;11.10;81.60;;;;;;5090647;28;20542;-79
2021/05/17 01:40:49;;;;;;;1.07;0.67;;;11.10;82.10;;;;;;5097754;28;21245;-78
2021/05/17 01:43:25;;;;;;;0.60;0.53;;;11.10;82.00;;;;;;5092134;28;20462;-79
2021/05/17 01:46:02;;;;;;;0.60;0.60;;;11.00;82.10;;;;;;5097640;28;20447;-79
2021/05/17 01:48:41;;;;;;;1.00;0.67;;;11.00;82.40;;;;;;5092923;28;20442;-80
2021/05/17 01:51:18;;;;;;;0.93;0.57;;;11.00;82.60;;;;;;5087500;28;20524;-79
2021/05/17 01:53:55;;;;;;;0.80;0.60;;;11.00;82.70;;;;;;5108327;28;20471;-79
2021/05/17 01:56:32;;;;;;;0.70;0.50;;;11.00;82.60;;;;;;5093306;28;20460;-78
2021/05/17 01:59:07;;;;;;;1.37;0.50;;;11.00;82.20;;;;;;5098975;28;20443;-78
2021/05/17 02:01:43;;;;;;;1.00;0.90;;;11.00;82.00;;;;;;5097574;28;20466;-79
2021/05/17 02:04:18;;;;;;;1.10;0.47;;;10.90;82.30;;;;;;5091397;28;20501;-78
2021/05/17 02:06:59;;;;;;;0.73;0.50;;;10.80;82.70;;;;;;5077437;28;20536;-79
2021/05/17 02:09:39;;;;;;;1.40;0.70;;;10.60;83.30;;;;;;5097502;28;20599;-78
2021/05/17 02:12:16;;;;;;;0.90;0.80;;;10.50;83.80;;;;;;5091471;28;20482;-82
2021/05/17 02:14:55;;;;;;;0.80;0.63;;;10.30;85.20;;;;;;5094745;28;20447;-78
2021/05/17 02:17:31;;;;;;;1.70;0.60;;;10.10;86.30;;;;;;5097785;28;20467;-79
2021/05/17 02:20:03;;;;;;;1.80;0.63;;;10.10;86.70;;;;;;5096580;28;20540;-78
2021/05/17 02:22:38;;;;;;;0.90;0.73;;;9.90;88.80;;;;;;5092714;28;20455;-80
2021/05/17 02:25:19;;;;;;;0.90;0.73;;;10.00;87.50;;;;;;5097021;28;20491;-79
2021/05/17 02:27:55;;;;;;;1.13;0.67;;;10.00;86.20;;;;;;5094231;28;20457;-85
2021/05/17 02:30:31;;;;;;;0.93;0.60;;;10.10;85.20;;;;;;5091929;28;20446;-79
2021/05/17 02:33:06;;;;;;;0.80;0.67;;;10.20;83.90;;;;;;5092572;28;20483;-86
2021/05/17 02:35:41;;;;;;;1.33;0.77;;;10.30;83.10;;;;;;5088107;28;20461;-79
2021/05/17 02:38:18;;;;;;;1.00;0.60;;;10.30;83.30;;;;;;5087997;28;20470;-79
2021/05/17 02:40:53;;;;;;;0.73;0.73;;;10.40;83.10;;;;;;5090510;28;20467;-79
2021/05/17 02:43:30;;;;;;;1.00;0.80;;;10.40;82.60;;;;;;5094741;28;20467;-79
2021/05/17 02:46:11;;;;;;;1.00;0.90;;;10.40;82.60;;;;;;5080139;28;20455;-78
2021/05/17 02:48:46;;;;;;;0.87;0.70;;;10.40;81.60;;;;;;5090581;28;20450;-79
2021/05/17 02:51:21;;;;;;;0.93;0.83;;;10.40;82.10;;;;;;5096500;28;20474;-78
2021/05/17 02:54:16;;;;;;;0.93;0.60;;;10.50;81.90;;;;;;5094495;28;20782;-84
2021/05/17 02:57:10;;;;;;;5.03;0.70;;;10.50;82.00;;;;;;5082080;28;20455;-80
2021/05/17 03:00:17;;;;;;;1.07;0.60;;;10.50;82.00;;;;;;5086446;28;20471;-80
2021/05/17 03:03:16;;;;;;;1.30;0.80;;;10.50;82.10;;;;;;5016738;28;20453;-79
2021/05/17 03:05:59;;;;;;;0.90;0.90;;;10.50;82.60;;;;;;5014224;28;20459;-80
2021/05/17 03:08:37;;;;;;;2.00;0.73;;;10.50;82.60;;;;;;5080919;28;20603;-85
2021/05/17 03:11:18;;;;;;;1.03;0.60;;;10.50;82.50;;;;;;5095399;28;20527;-80
2021/05/17 03:13:55;;;;;;;0.90;0.90;;;10.50;82.60;;;;;;5087450;28;20469;-78
2021/05/17 03:16:32;;;;;;;1.73;1.30;;;10.50;82.50;;;;;;5094849;28;20459;-82
2021/05/17 03:19:10;;;;;;;1.63;1.10;;;10.50;82.60;;;;;;5091081;28;20538;-79
2021/05/17 03:21:50;;;;;;;1.33;1.10;;;10.60;82.70;;;;;;5093857;28;20457;-79
2021/05/17 03:24:22;;;;;;;1.40;0.90;;;10.60;82.70;;;;;;5091106;28;20563;-78
2021/05/17 03:27:01;;;;;;;0.80;0.77;;;10.60;82.80;;;;;;5095076;28;20451;-82
2021/05/17 03:29:36;;;;;;;0.90;0.70;;;10.60;82.80;;;;;;5084860;28;20485;-79
2021/05/17 03:32:12;;;;;;;1.70;0.80;;;10.60;83.00;;;;;;5086777;28;20483;-81
2021/05/17 03:35:02;;;;;;;1.77;0.90;;;10.60;83.00;;;;;;5099406;28;20478;-79
2021/05/17 03:37:37;;;;;;;3.20;1.20;;;10.60;83.20;;;;;;5104876;28;20446;-80
2021/05/17 03:40:13;;;;;;;1.40;0.80;;;10.70;83.30;;;;;;5106121;28;20452;-79
2021/05/17 03:42:49;;;;;;;3.23;1.30;;;10.70;83.20;;;;;;5093095;28;20436;-78
2021/05/17 03:45:23;;;;;;;1.33;1.10;;;10.70;83.30;;;;;;5108754;28;20462;-79
2021/05/17 03:47:59;;;;;;;0.97;0.90;;;10.70;83.50;;;;;;5109856;28;20451;-79
2021/05/17 03:50:34;;;;;;;1.53;0.80;;;10.70;83.70;;;;;;5092239;28;20485;-79
2021/05/17 03:53:10;;;;;;;1.33;1.17;;;10.70;83.80;;;;;;5097212;28;20462;-78
2021/05/17 03:55:45;;;;;;;2.30;1.07;;;10.70;84.10;;;;;;5093288;28;20466;-77
2021/05/17 03:58:19;;;;;;;2.50;1.17;;;10.70;84.30;;;;;;5085196;28;20534;-79
2021/05/17 04:00:57;;;;;;;2.00;1.00;;;10.60;84.70;;;;;;5093971;28;20455;-79
2021/05/17 04:03:31;;;;;;;1.50;1.20;;;10.60;84.60;;;;;;5093289;28;20459;-82
2021/05/17 04:06:13;;;;;;;2.60;1.17;;;10.70;84.30;;;;;;5089771;28;20449;-79
2021/05/17 04:14:28;;;;;;;1.20;1.10;;;10.80;83.30;;;;;;5098861;28;20477;-79
2021/05/17 04:17:02;;;;;;;3.37;1.80;;;10.80;83.30;;;;;;5092712;28;20519;-86
2021/05/17 04:19:38;;;;;;;1.07;0.80;;;10.90;83.50;;;;;;5085544;28;20451;-77
2021/05/17 04:22:12;;;;;;;1.60;1.50;;;10.90;83.00;;;;;;5087341;28;20443;-78
2021/05/17 04:24:47;;;;;;;1.77;1.30;;;10.90;82.70;;;;;;5089088;28;20523;-79
2021/05/17 04:27:19;;;;;;;1.40;1.03;;;10.90;82.50;;;;;;5085481;28;20533;-79
2021/05/17 04:29:54;;;;;;;1.10;0.97;;;10.90;81.90;;;;;;5091010;28;21112;-78
2021/05/17 04:32:29;;;;;;;2.10;0.90;;;10.90;82.10;;;;;;5091854;28;20493;-80
2021/05/17 04:35:04;;;;;;;4.93;1.90;;;10.90;82.00;;;;;;5096246;28;20485;-79
2021/05/17 04:37:39;;;;;;;2.17;1.10;;;11.00;81.80;;;;;;5080843;28;20495;-79
2021/05/17 04:40:15;;;;;;;1.90;0.83;;;11.10;81.80;;;;;;5088317;28;20454;-78
2021/05/17 04:42:49;;;;;;;5.00;1.57;;;11.10;80.80;;;;;;5093364;28;20470;-79
2021/05/17 04:45:24;;;;;;;3.37;1.13;;;11.20;80.50;;;;;;5087252;28;20540;-79
2021/05/17 04:48:02;;;;;;;3.17;1.03;;;11.30;80.10;;;;;;5091573;28;20451;-79
2021/05/17 04:50:38;;;;;;;2.60;0.87;;;11.30;79.50;;;;;;5084168;28;20463;-81
2021/05/17 04:53:13;;;;;;;2.40;1.10;;;11.30;79.20;;;;;;5081404;28;20499;-80
2021/05/17 04:55:45;;;;;;;3.07;1.23;;;11.40;79.00;;;;;;5087507;28;20921;-80
2021/05/17 04:58:20;;;;;;;2.70;1.00;;;11.50;78.90;;;;;;5097416;28;20447;-79
2021/05/17 05:00:54;;;;;;;2.23;1.30;;;11.50;78.70;;;;;;5096813;28;20463;-79
2021/05/17 05:03:29;;;;;;;2.70;0.90;;;11.50;78.50;;;;;;5095311;28;20534;-81
2021/05/17 05:06:06;;;;;;;1.90;0.90;;;11.40;78.40;;;;;;5098448;28;20596;-80
2021/05/17 05:08:38;;;;;;;1.10;0.70;;;11.40;78.70;;;;;;5095999;28;21036;-79
2021/05/17 05:11:12;;;;;;;1.30;0.70;;;11.50;78.30;;;;;;5090297;28;20452;-79
2021/05/17 05:13:48;;;;;;;4.00;1.10;;;11.60;78.00;;;;;;5098569;28;20859;-79
2021/05/17 05:16:23;;;;;;;4.10;0.90;;;11.50;77.80;;;;;;5095284;28;20461;-80
2021/05/17 05:18:58;;;;;;;3.03;1.10;;;11.50;77.70;;;;;;5097860;28;20561;-82
2021/05/17 05:21:33;;;;;;;1.03;0.93;;;11.60;77.40;;;;;;5084704;28;20456;-79
2021/05/17 05:24:09;;;;;;;3.27;0.97;;;11.40;77.50;;;;;;5099482;28;20999;-78
2021/05/17 05:26:52;;;;;;;2.00;1.07;;;11.50;77.40;;;;;;5088399;28;20474;-81
2021/05/17 05:32:23;;;;;;;4.30;1.10;;;11.50;79.00;;;;;;5085416;28;20546;-82
2021/05/17 05:34:58;;;;;;;2.87;1.07;;;11.40;81.00;;;;;;5093056;28;20454;-81
2021/05/17 05:37:34;;;;;;;1.87;1.60;;;11.30;82.20;;;;;;5096276;28;20499;-80
2021/05/17 05:40:10;;;;;;;2.57;1.13;;;11.10;85.80;;;;;;5092771;28;20925;-80
2021/05/17 05:42:44;;;;;;;5.33;1.30;;;10.90;86.90;;;;;;5094046;28;20497;-80
2021/05/17 05:45:20;;;;;;;4.37;1.60;;;10.80;87.90;;;;;;5095035;28;20530;-77
2021/05/17 05:47:55;;;;;;;3.00;1.13;;;10.70;88.50;;;;;;5087509;28;20477;-77
2021/05/17 05:50:29;;;;;;;1.30;1.10;;;10.50;90.80;;;;;;5086991;28;20509;-76
2021/05/17 05:53:05;;;;;;;2.67;1.30;;;10.40;93.60;;;;;;5085832;28;20464;-76
2021/05/17 05:55:40;;;;;;;3.60;1.20;;;10.30;95.10;;;;;;5087663;28;20445;-76
2021/05/17 05:58:15;;;;;;;3.53;1.47;;;10.30;97.20;;;;;;5089424;28;20644;-76
2021/05/17 06:00:50;;;;;;;3.70;1.67;;;10.20;98.80;;;;;;5086630;28;20485;-76
2021/05/17 06:03:25;;;;;;;3.60;1.40;;;10.30;99.90;;;;;;5083836;28;21038;-77
2021/05/17 06:05:59;;;;;;;2.40;1.50;;;10.30;99.90;;;;;;5088250;28;20478;-77
2021/05/17 06:08:43;;;;;;;4.20;1.60;;;10.10;99.90;;;;;;5083590;28;21017;-81
2021/05/17 06:11:18;;;;;;;3.77;1.83;;;10.20;99.90;;;;;;5089037;28;20447;-77
2021/05/17 06:13:54;;;;;;;2.70;1.53;;;10.40;99.90;;;;;;5098346;28;20536;-76
2021/05/17 06:16:29;;;;;;;4.13;2.10;;;10.80;99.90;;;;;;5094529;28;20469;-77
2021/05/17 06:19:04;;;;;;;4.73;2.40;;;11.20;99.90;;;;;;5087006;28;21354;-78
2021/05/17 06:21:40;;;;;;;4.63;2.20;;;11.50;99.50;;;;;;5086341;28;20516;-77
2021/05/17 06:24:18;;;;;;;1.87;1.33;;;11.40;95.00;;;;;;5088140;28;20458;-76
2021/05/17 06:26:52;;;;;;;2.43;1.60;;;11.50;93.90;;;;;;5088436;28;21052;-77
2021/05/17 06:29:28;;;;;;;3.63;1.60;;;11.80;92.00;;;;;;5081916;28;20470;-78
2021/05/17 06:32:03;;;;;;;3.20;1.20;;;11.80;90.20;;;;;;5089943;28;20491;-79
2021/05/17 06:34:41;;;;;;;1.33;1.00;;;11.80;89.50;;;;;;5081253;28;20458;-77
2021/05/17 06:37:15;;;;;;;1.50;1.13;;;11.70;90.40;;;;;;5086855;28;20447;-78
2021/05/17 06:39:51;;;;;;;1.67;1.13;;;11.70;89.20;;;;;;5085637;28;20482;-77
2021/05/17 06:42:27;;;;;;;2.00;1.20;;;12.20;88.30;;;;;;5082943;28;20449;-79
2021/05/17 06:45:02;;;;;;;1.63;1.07;;;12.80;86.60;;;;;;5078027;28;20505;-80
2021/05/17 06:47:37;;;;;;;1.30;1.20;;;12.90;83.40;;;;;;5083460;28;20449;-80
2021/05/17 06:50:13;;;;;;;1.07;0.90;;;12.70;86.10;;;;;;5081041;28;20483;-77
2021/05/17 06:52:49;;;;;;;2.30;1.07;;;12.50;84.40;;;;;;5085789;28;20467;-78
2021/05/17 06:55:25;;;;;;;1.33;1.23;;;12.10;86.80;;;;;;5086201;28;20588;-77
2021/05/17 07:00:53;;;;;;;2.30;1.27;;;11.60;90.60;;;;;;5085069;28;21251;-76
2021/05/17 07:03:29;;;;;;;3.47;1.30;;;11.50;90.50;;;;;;5084380;28;20446;-76
2021/05/17 07:06:04;;;;;;;2.73;1.07;;;11.40;91.20;;;;;;5094409;28;20440;-78
2021/05/17 07:11:42;;;;;;;3.03;1.40;;;11.10;92.00;;;;;;5088174;28;20460;-77
2021/05/17 07:14:14;;;;;;;3.07;1.10;;;10.80;95.40;;;;;;5074949;28;21037;-77
2021/05/17 07:16:50;;;;;;;2.00;1.10;;;10.70;98.00;;;;;;5089244;28;20454;-77
2021/05/17 07:19:24;;;;;;;1.30;1.13;;;10.80;99.90;;;;;;5093552;28;20541;-77
2021/05/17 07:24:49;;;;;;;4.67;1.40;;;11.40;95.60;;;;;;5074523;28;20460;-78
2021/05/17 07:27:26;;;;;;;1.30;0.97;;;12.10;91.50;;;;;;5092038;28;20459;-78
2021/05/17 07:30:00;;;;;;;1.47;1.17;;;12.80;87.20;;;;;;5083121;28;20449;-80
2021/05/17 07:32:35;;;;;;;1.00;0.90;;;12.80;85.20;;;;;;5084285;28;20455;-79
2021/05/17 07:35:10;;;;;;;1.10;0.90;;;12.90;84.30;;;;;;5082126;28;20493;-79
2021/05/17 07:37:46;;;;;;;3.23;0.97;;;13.20;84.30;;;;;;5089482;28;20450;-77
2021/05/17 07:40:21;;;;;;;1.57;1.00;;;13.20;83.80;;;;;;5082457;28;20833;-77
2021/05/17 07:42:57;;;;;;;3.33;0.90;;;12.60;85.20;;;;;;5076159;28;21196;-77
2021/05/17 07:45:33;;;;;;;2.33;1.13;;;12.10;85.40;;;;;;5086554;28;20506;-77
2021/05/17 07:48:10;;;;;;;0.80;0.80;;;11.50;89.70;;;;;;5090214;28;20521;-78
2021/05/17 07:50:42;;;;;;;3.63;0.60;;;11.10;90.20;;;;;;5085169;28;20522;-78
2021/05/17 07:53:17;;;;;;;3.50;0.90;;;10.70;94.50;;;;;;5089592;28;20574;-77
2021/05/17 07:55:53;;;;;;;1.10;0.70;;;10.50;99.90;;;;;;5083280;28;21357;-78
2021/05/17 07:58:29;;;;;;;0.70;0.70;;;10.30;99.90;;;;;;5084028;28;20975;-75
2021/05/17 08:01:04;;;;;;;1.33;0.80;;;10.40;99.90;;;;;;5084444;28;20925;-76
2021/05/17 08:03:39;;;;;;;1.90;1.27;;;10.50;99.90;;;;;;5087266;28;20458;-75
2021/05/17 08:06:14;;;;;;;1.97;1.30;;;10.50;99.90;;;;;;5095853;28;20534;-83
2021/05/17 08:08:49;;;;;;;2.50;1.20;;;10.80;99.90;;;;;;5096222;28;20445;-81
2021/05/17 08:11:25;;;;;;;1.95;1.67;;;11.30;97.40;;;;;;5091976;28;20461;-78
2021/05/17 08:14:01;;;;;;;2.50;1.10;;;11.70;92.40;;;;;;5092952;28;20207;-80
2021/05/17 08:16:36;;;;;;;2.10;1.20;;;12.00;90.50;;;;;;5062665;28;20462;-81
2021/05/17 08:19:11;;;;;;;1.30;1.20;;;12.80;87.70;;;;;;5082879;28;20470;-80
2021/05/17 08:21:46;;;;;;;1.17;1.00;;;13.50;85.10;;;;;;5081864;28;20486;-83
2021/05/17 08:24:22;;;;;;;1.40;0.90;;;13.70;83.90;;;;;;5088660;28;20438;-74
2021/05/17 08:26:54;;;;;;;2.10;1.20;;;13.50;83.90;;;;;;5090087;28;20930;-75
2021/05/17 08:29:33;;;;;;;1.17;1.07;;;12.80;85.30;;;;;;5093359;28;20522;-75
2021/05/17 08:32:10;;;;;;;0.70;0.70;;;12.90;86.00;;;;;;5095844;28;20455;-80
2021/05/17 08:34:45;;;;;;;3.17;1.07;;;12.60;85.00;;;;;;5091072;28;20454;-76
2021/05/17 08:37:19;;;;;;;2.30;1.67;;;12.70;83.90;;;;;;5083324;28;20533;-74
2021/05/17 08:39:54;;;;;;;1.10;1.00;;;12.50;84.90;;;;;;5087873;28;20474;-77
2021/05/17 08:42:32;;;;;;;1.67;1.10;;;12.50;84.30;;;;;;5096974;28;20452;-80
2021/05/17 08:45:08;;;;;;;2.00;1.00;;;12.70;85.40;;;;;;5091878;28;20462;-79
2021/05/17 08:47:44;;;;;;;2.77;1.10;;;12.70;82.30;;;;;;5083480;28;20446;-77
2021/05/17 08:50:19;;;;;;;4.23;0.97;;;12.70;83.10;;;;;;5093187;28;20443;-77
2021/05/17 08:52:55;;;;;;;2.67;1.20;;;13.10;84.20;;;;;;5098547;28;20473;-77
2021/05/17 08:55:30;;;;;;;1.77;1.00;;;13.50;81.40;;;;;;5099501;28;20559;-79
2021/05/17 08:58:04;;;;;;;2.07;1.10;;;13.40;80.20;;;;;;5088892;28;20459;-79
2021/05/17 09:00:40;;;;;;;1.13;1.00;;;13.90;80.30;;;;;;5090561;28;20477;-80
2021/05/17 09:03:15;;;;;;;1.03;0.83;;;14.40;79.40;;;;;;5090487;28;20471;-82
2021/05/17 09:05:53;;;;;;;1.10;0.47;;;14.20;79.10;;;;;;5086370;28;20454;-79
2021/05/17 09:08:28;;;;;;;1.40;0.97;;;13.30;77.00;;;;;;5076637;28;21287;-77
2021/05/17 09:11:02;;;;;;;0.70;0.60;;;12.60;77.80;;;;;;5089718;28;20453;-77
2021/05/17 09:13:37;;;;;;;0.50;0.40;;;12.20;79.10;;;;;;5085798;28;20603;-77
2021/05/17 09:16:12;;;;;;;0.83;0.67;;;12.00;80.40;;;;;;5084149;28;20455;-76
2021/05/17 09:18:48;;;;;;;1.07;0.40;;;12.10;79.40;;;;;;5082700;28;20877;-80
2021/05/17 09:21:22;;;;;;;0.70;0.40;;;12.40;78.90;;;;;;5085923;28;20891;-76
2021/05/17 09:23:57;;;;;;;0.97;0.50;;;12.50;78.20;;;;;;5087649;28;20510;-79
2021/05/17 09:26:32;;;;;;;0.67;0.50;;;12.20;80.00;;;;;;5082818;28;20450;-76
2021/05/17 09:29:07;;;;;;;1.50;0.63;;;12.10;80.60;;;;;;5089151;28;20448;-80
2021/05/17 09:31:44;;;;;;;0.90;0.60;;;12.00;81.30;;;;;;5091948;28;20506;-77
2021/05/17 09:34:19;;;;;;;0.60;0.60;;;11.70;81.80;;;;;;5086795;28;20210;-77
2021/05/17 09:36:54;;;;;;;1.13;0.70;;;11.90;82.00;;;;;;5088132;28;20507;-80
2021/05/17 09:39:29;;;;;;;1.17;0.70;;;12.10;82.20;;;;;;5094429;28;21024;-78
2021/05/17 09:42:06;;;;;;;1.03;0.73;;;12.50;81.60;;;;;;5091933;28;20534;-77
2021/05/17 09:44:41;;;;;;;1.10;0.90;;;13.10;81.20;;;;;;5086524;28;20848;-80
2021/05/17 09:47:20;;;;;;;0.97;0.90;;;13.90;80.80;;;;;;5100815;28;20965;-79
2021/05/17 09:49:57;;;;;;;1.20;0.83;;;14.20;80.00;;;;;;5086716;28;20448;-78
2021/05/17 09:52:33;;;;;;;1.50;0.67;;;14.20;78.90;;;;;;5091805;28;20502;-75
2021/05/17 09:55:11;;;;;;;1.40;0.80;;;14.60;77.90;;;;;;5088955;28;20559;-81
2021/05/17 09:57:47;;;;;;;0.73;0.70;;;14.60;77.60;;;;;;5093927;28;20454;-80
2021/05/17 10:00:25;;;;;;;1.53;0.90;;;15.10;76.60;;;;;;5088331;28;20784;-78
2021/05/17 10:03:02;;;;;;;0.80;0.70;;;15.40;75.70;;;;;;5092328;28;20451;-78
2021/05/17 10:05:37;;;;;;;1.40;0.93;;;14.60;73.90;;;;;;5088206;28;20467;-82
2021/05/17 10:08:14;;;;;;;2.60;0.80;;;14.60;74.00;;;;;;5090212;28;21016;-78
2021/05/17 10:10:50;;;;;;;1.90;0.83;;;14.50;72.40;;;;;;5088063;28;20452;-75
2021/05/17 10:13:25;;;;;;;0.87;0.57;;;14.70;70.70;;;;;;5093261;28;20830;-76
2021/05/17 10:16:00;;;;;;;2.10;0.60;;;15.10;70.00;;;;;;5092684;28;20451;-80
2021/05/17 10:18:37;;;;;;;2.07;0.80;;;15.00;68.30;;;;;;5086250;28;20995;-83
2021/05/17 10:21:11;;;;;;;1.43;0.70;;;14.50;67.90;;;;;;5087744;28;20479;-81
2021/05/17 10:23:47;;;;;;;1.03;0.80;;;14.30;67.60;;;;;;5085953;28;20455;-78
2021/05/17 10:26:27;;;;;;;1.17;0.70;;;14.00;68.20;;;;;;5088349;28;20469;-77
2021/05/17 10:29:05;;;;;;;1.97;0.60;;;14.10;68.10;;;;;;5093623;28;20447;-79
2021/05/17 10:31:53;;;;;;;0.90;0.60;;;14.70;67.10;;;;;;5091380;28;20455;-80
2021/05/17 10:34:29;;;;;;;3.37;0.63;;;14.80;66.30;;;;;;5089798;28;20446;-80
2021/05/17 10:37:05;;;;;;;0.57;0.50;;;14.80;64.90;;;;;;5091623;28;20490;-78
2021/05/17 10:39:45;;;;;;;2.87;1.00;;;14.50;65.10;;;;;;5093603;28;20473;-80
2021/05/17 10:42:32;;;;;;;7.07;1.03;;;14.60;65.50;;;;;;5099977;28;20443;-81
2021/05/17 10:48:34;;;;;;;1.20;0.80;;;16.00;63.50;;;;;;5090204;28;20441;-77
2021/05/17 10:51:21;;;;;;;5.47;1.10;;;16.20;61.80;;;;;;5024441;28;20475;-79
2021/05/17 10:53:58;;;;;;;1.23;0.53;;;16.70;61.50;;;;;;5031163;28;21227;-78
2021/05/17 10:56:55;;;;;;;1.30;0.80;;;16.40;61.20;;;;;;5077455;28;20467;-78
2021/05/17 11:02:31;;;;;;;2.20;0.90;;;15.60;61.50;;;;;;5112802;28;20468;-79
2021/05/17 11:05:11;;;;;;;0.97;0.50;;;16.50;60.90;;;;;;5097677;28;20466;-80
2021/05/17 11:07:55;;;;;;;1.00;0.40;;;16.70;58.60;;;;;;5098937;28;20453;-80
2021/05/17 11:10:35;;;;;;;2.40;0.60;;;16.60;58.10;;;;;;5099292;28;20448;-79
2021/05/17 11:13:16;;;;;;;0.50;0.40;;;16.40;57.90;;;;;;5074117;28;20836;-80
2021/05/17 11:16:11;;;;;;;9.80;0.87;;;16.30;57.90;;;;;;5090188;28;20448;-79
2021/05/17 11:18:51;;;;;;;0.50;0.50;;;16.90;58.10;;;;;;5089094;28;20455;-79
2021/05/17 11:21:30;;;;;;;1.10;0.43;;;16.80;56.60;;;;;;5101225;28;20461;-81
2021/05/17 11:24:12;;;;;;;1.33;0.40;;;16.30;55.90;;;;;;5098205;28;20454;-81
2021/05/17 11:27:04;;;;;;;3.23;0.77;;;16.50;55.80;;;;;;5092365;28;20459;-81
2021/05/17 11:29:40;;;;;;;0.70;0.50;;;16.30;56.00;;;;;;5100222;28;20445;-81
2021/05/17 11:32:19;;;;;;;1.47;0.80;;;15.90;56.40;;;;;;5092188;28;20465;-81
2021/05/17 11:35:12;;;;;;;1.27;0.40;;;16.00;56.40;;;;;;5097503;28;20487;-80
2021/05/17 11:38:09;;;;;;;2.20;0.80;;;15.60;56.50;;;;;;5090929;28;20443;-80
2021/05/17 11:40:54;;;;;;;1.23;0.50;;;15.50;57.00;;;;;;5092844;28;20436;-83
2021/05/17 11:43:32;;;;;;;0.93;0.60;;;15.40;57.30;;;;;;5081347;28;20539;-81
2021/05/17 11:46:25;;;;;;;2.60;0.67;;;15.00;57.50;;;;;;5094517;28;20966;-79
2021/05/17 11:49:06;;;;;;;1.43;0.70;;;14.90;58.20;;;;;;5076627;28;20996;-81
2021/05/17 11:51:54;;;;;;;3.43;0.60;;;15.00;57.50;;;;;;5100181;28;20472;-82
2021/05/17 11:54:43;;;;;;;1.43;0.50;;;15.20;57.30;;;;;;5096456;28;20455;-81
2021/05/17 11:57:44;;;;;;;2.83;0.60;;;15.20;59.30;;;;;;5096175;28;20444;-80
2021/05/17 12:00:24;;;;;;;0.87;0.50;;;15.10;57.30;;;;;;5090478;28;20470;-85
2021/05/17 12:03:00;;;;;;;1.27;0.52;;;15.80;57.60;;;;;;5088042;28;20448;-78
2021/05/17 12:05:36;;;;;;;1.47;0.60;;;16.40;56.80;;;;;;5092567;28;20664;-80
2021/05/17 12:08:13;;;;;;;2.53;0.63;;;16.30;56.30;;;;;;5090660;28;20448;-77
2021/05/17 12:10:48;;;;;;;1.73;0.60;;;16.30;56.00;;;;;;5081468;28;20465;-75
2021/05/17 12:13:24;;;;;;;0.90;0.40;;;16.60;55.00;;;;;;5082842;28;20512;-75
2021/05/17 12:15:59;;;;;;;15.13;1.37;;;16.80;54.50;;;;;;5086784;28;20455;-78
2021/05/17 12:18:47;;;;;;;2.03;0.30;;;16.80;55.10;;;;;;5091949;28;20455;-80
2021/05/17 12:21:22;;;;;;;1.00;0.50;;;16.90;55.30;;;;;;5093313;28;20467;-83
2021/05/17 12:23:57;;;;;;;0.40;0.30;;;16.60;54.70;;;;;;5093817;28;20451;-79
2021/05/17 12:26:44;;;;;;;3.37;0.93;;;16.40;54.10;;;;;;5093692;28;20978;-80
2021/05/17 12:29:20;;;;;;;0.40;0.30;;;16.80;53.70;;;;;;5069984;28;20460;-77
2021/05/17 12:31:55;;;;;;;0.50;0.40;;;16.60;53.10;;;;;;5091761;28;20558;-80
2021/05/17 12:34:30;;;;;;;3.90;0.33;;;17.00;53.80;;;;;;5094734;28;20440;-83
2021/05/17 12:37:05;;;;;;;0.57;0.33;;;16.50;53.60;;;;;;5100029;28;20448;-79
2021/05/17 12:39:40;;;;;;;1.80;0.40;;;16.40;54.00;;;;;;5086243;28;20448;-79
2021/05/17 12:42:19;;;;;;;4.77;0.40;;;16.70;54.90;;;;;;5089309;28;20464;-78
2021/05/17 12:45:04;;;;;;;1.17;0.30;;;17.50;54.90;;;;;;5089556;28;20858;-79
2021/05/17 12:47:43;;;;;;;2.20;0.30;;;;;;;;;;5088036;28;20785;-81
2021/05/17 12:50:25;;;;;;;0.85;0.50;;;16.90;53.70;;;;;;5088796;28;20817;-81
2021/05/17 12:53:08;;;;;;;2.30;0.40;;;16.70;53.60;;;;;;5090102;28;20590;-77
2021/05/17 12:55:50;;;;;;;0.63;0.43;;;16.70;53.30;;;;;;5083596;28;20502;-76
2021/05/17 12:58:34;;;;;;;0.77;0.40;;;17.20;53.10;;;;;;5092395;28;20897;-75
2021/05/17 13:01:15;;;;;;;3.30;0.97;;;17.20;53.20;;;;;;5086425;28;20471;-78
2021/05/17 13:03:53;;;;;;;1.47;0.70;;;16.60;52.40;;;;;;5090974;28;20437;-79
2021/05/17 13:06:29;;;;;;;2.70;0.67;;;16.70;53.10;;;;;;5094494;28;20453;-78
2021/05/17 13:09:07;;;;;;;1.53;0.30;;;17.10;53.00;;;;;;5092053;28;20448;-79
2021/05/17 13:11:44;;;;;;;1.07;0.27;;;16.90;52.90;;;;;;5088703;28;20453;-80
2021/05/17 13:14:25;;;;;;;3.90;0.57;;;16.50;53.20;;;;;;5079090;28;20505;-80
2021/05/17 13:17:08;;;;;;;0.53;0.30;;;16.30;53.40;;;;;;5081873;28;20757;-79
2021/05/17 13:19:48;;;;;;;0.60;0.40;;;16.50;53.80;;;;;;5090522;28;20451;-77
2021/05/17 13:31:08;;;;;;;0.50;0.20;;;17.50;51.90;;;;;;5100924;28;20866;-84
2021/05/17 13:33:51;;;;;;;0.53;0.40;;;17.20;51.20;;;;;;5096923;28;20467;-80
2021/05/17 13:36:30;;;;;;;5.77;0.63;;;17.00;51.60;;;;;;5098850;28;20462;-81
2021/05/17 13:39:05;;;;;;;0.50;0.40;;;17.20;51.70;;;;;;5092748;28;20515;-84
2021/05/17 13:41:40;;;;;;;0.87;0.40;;;17.00;51.20;;;;;;5094177;28;20509;-77
2021/05/17 13:44:15;;;;;;;2.17;0.60;;;17.10;51.20;;;;;;5092565;28;20504;-81
2021/05/17 13:46:50;;;;;;;2.73;0.33;;;17.30;51.10;;;;;;5094023;28;20449;-80
2021/05/17 13:49:33;;;;;;;3.03;0.67;;;17.10;51.20;;;;;;5099299;28;20444;-79
2021/05/17 13:52:08;;;;;;;1.90;0.40;;;17.50;51.10;;;;;;5099920;28;20505;-79
2021/05/17 13:54:42;;;;;;;1.65;0.40;;;17.00;51.10;;;;;;5093610;28;20471;-81
2021/05/17 13:57:17;;;;;;;8.53;1.40;;;17.30;51.20;;;;;;5095415;28;20535;-78
2021/05/17 13:59:52;;;;;;;0.73;0.40;;;17.30;50.90;;;;;;5098017;28;20464;-82
2021/05/17 14:02:27;;;;;;;2.00;0.40;;;16.90;51.00;;;;;;5100918;28;20463;-78
2021/05/17 14:05:03;;;;;;;1.03;0.40;;;17.20;51.20;;;;;;5098686;28;20572;-82
2021/05/17 14:07:38;;;;;;;0.70;0.40;;;17.40;50.80;;;;;;5097382;28;20438;-82
2021/05/17 14:10:13;;;;;;;13.00;1.20;;;17.50;51.00;;;;;;5101825;28;20465;-79
2021/05/17 14:12:48;;;;;;;1.00;0.60;;;17.70;50.70;;;;;;5112569;28;20442;-83